createdAt,value
2022-10-08T03:02:20.415Z,4.63
2022-10-08T03:04:55.635Z,4.43
2022-10-08T03:07:26.262Z,5.63
2022-10-08T03:09:56.725Z,4.40
2022-10-08T03:12:27.014Z,5.40
2022-10-08T03:14:55.409Z,5.00
2022-10-08T03:17:33.068Z,5.20
2022-10-08T03:20:03.453Z,4.57
2022-10-08T03:22:32.341Z,4.70
2022-10-08T03:25:01.017Z,4.53
2022-10-08T03:27:29.365Z,5.20
2022-10-08T03:29:57.993Z,4.90
2022-10-08T03:32:28.875Z,5.40
2022-10-08T03:34:57.634Z,5.27
2022-10-08T03:37:25.976Z,5.27
2022-10-08T03:39:54.360Z,5.60
2022-10-08T03:42:22.731Z,4.93
2022-10-08T03:44:51.060Z,5.43
2022-10-08T03:47:19.461Z,4.73
2022-10-08T03:49:49.169Z,5.70
2022-10-08T03:52:17.473Z,5.63
2022-10-08T03:54:45.858Z,5.30
2022-10-08T03:57:14.278Z,5.20
2022-10-08T03:59:42.545Z,5.63
2022-10-08T04:02:10.969Z,5.60
2022-10-08T04:04:39.374Z,6.00
2022-10-08T04:07:09.197Z,6.03
2022-10-08T04:09:37.536Z,5.20
2022-10-08T04:12:06.035Z,5.57
2022-10-08T04:14:34.371Z,5.33
2022-10-08T04:17:02.711Z,5.00
2022-10-08T04:19:31.085Z,5.53
2022-10-08T04:21:59.525Z,5.80
2022-10-08T04:24:29.293Z,5.40
2022-10-08T04:26:57.667Z,5.80
2022-10-08T04:29:26.111Z,6.93
2022-10-08T04:31:54.531Z,5.13
2022-10-08T04:34:22.946Z,5.20
2022-10-08T04:36:51.285Z,5.40
2022-10-08T04:39:19.657Z,8.23
2022-10-08T04:41:49.415Z,5.30
2022-10-08T04:44:17.881Z,5.13
2022-10-08T04:46:46.339Z,5.93
2022-10-08T04:49:14.894Z,6.00
2022-10-08T04:51:43.319Z,6.03
2022-10-08T04:54:11.677Z,5.10
2022-10-08T04:56:40.148Z,6.07
2022-10-08T04:59:09.972Z,6.50
2022-10-08T05:01:38.548Z,6.00
2022-10-08T05:04:06.960Z,6.43
2022-10-08T05:06:35.467Z,6.40
2022-10-08T05:09:04.237Z,4.93
2022-10-08T05:11:33.438Z,5.30
2022-10-08T05:14:02.140Z,6.90
2022-10-08T05:16:31.896Z,5.87
2022-10-08T05:19:00.310Z,5.30
2022-10-08T05:21:31.110Z,5.83
2022-10-08T05:24:01.397Z,6.37
2022-10-08T05:26:56.815Z,5.90
2022-10-08T05:29:21.268Z,5.60
2022-10-08T05:31:50.990Z,6.10
2022-10-08T05:34:19.349Z,5.53
2022-10-08T05:36:47.712Z,5.33
2022-10-08T05:39:16.513Z,5.33
2022-10-08T05:41:45.162Z,4.93
2022-10-08T05:44:13.790Z,5.30
2022-10-08T05:46:42.261Z,5.03
2022-10-08T05:49:20.165Z,6.60
2022-10-08T05:51:49.027Z,5.40
2022-10-08T05:54:18.654Z,4.90
2022-10-08T05:56:47.130Z,6.27
2022-10-08T05:59:19.420Z,5.00
2022-10-08T06:01:47.898Z,4.67
2022-10-08T06:04:18.428Z,5.27
2022-10-08T06:06:47.266Z,4.50
2022-10-08T06:09:20.356Z,5.33
2022-10-08T06:11:50.020Z,4.83
2022-10-08T06:14:20.293Z,5.40
2022-10-08T06:16:49.021Z,4.60
2022-10-08T06:19:38.797Z,5.17
2022-10-08T06:22:10.215Z,4.70
2022-10-08T06:24:38.550Z,5.10
2022-10-08T06:27:06.932Z,6.20
2022-10-08T06:29:35.356Z,4.67
2022-10-08T06:32:03.817Z,5.43
2022-10-08T06:34:33.642Z,4.90
2022-10-08T06:37:02.063Z,5.40
2022-10-08T06:39:30.389Z,5.37
2022-10-08T06:41:58.908Z,5.97
2022-10-08T06:44:36.505Z,5.40
2022-10-08T06:47:05.045Z,6.00
2022-10-08T06:49:34.863Z,5.60
2022-10-08T06:52:03.252Z,6.10
2022-10-08T06:54:31.658Z,5.07
2022-10-08T06:57:00.265Z,5.37
2022-10-08T06:59:28.600Z,5.20
2022-10-08T07:01:57.108Z,5.37
2022-10-08T07:04:25.462Z,5.80
2022-10-08T07:06:55.299Z,5.10
2022-10-08T07:09:23.627Z,5.10
2022-10-08T07:11:52.034Z,5.20
2022-10-08T07:14:21.407Z,5.73
2022-10-08T07:16:49.813Z,6.17
2022-10-08T07:19:18.262Z,5.53
2022-10-08T07:24:16.264Z,4.93
2022-10-08T07:26:44.630Z,4.87
2022-10-08T07:31:44.743Z,5.30
2022-10-08T07:34:14.761Z,5.70
2022-10-08T07:36:43.337Z,5.97
2022-10-08T07:39:15.854Z,6.77
2022-10-08T07:41:44.294Z,5.80
2022-10-08T07:44:14.010Z,5.80
2022-10-08T07:46:45.750Z,6.37
2022-10-08T07:49:15.185Z,6.50
2022-10-08T07:51:44.005Z,6.10
2022-10-08T07:54:18.650Z,7.13
2022-10-08T07:56:47.538Z,6.63
2022-10-08T07:59:16.119Z,6.40
2022-10-08T08:01:45.548Z,6.10
2022-10-08T08:04:14.727Z,5.90
2022-10-08T08:06:47.452Z,4.77
2022-10-08T08:09:18.303Z,4.30
2022-10-08T08:11:47.323Z,4.47
2022-10-08T08:14:15.887Z,5.07
2022-10-08T08:16:44.291Z,3.67
2022-10-08T08:19:12.755Z,5.20
2022-10-08T08:21:41.055Z,5.00
2022-10-08T08:24:12.743Z,3.80
2022-10-08T08:26:44.701Z,4.10
2022-10-08T08:29:16.533Z,3.57
2022-10-08T08:31:47.192Z,3.90
2022-10-08T08:34:18.139Z,4.37
2022-10-08T08:36:49.813Z,4.50
2022-10-08T08:39:21.276Z,3.37
2022-10-08T08:42:16.225Z,3.30
2022-10-08T08:44:47.911Z,3.20
2022-10-08T08:47:21.525Z,3.40
2022-10-08T08:49:55.317Z,2.90
2022-10-08T08:52:26.510Z,2.93
2022-10-08T08:54:55.569Z,2.90
2022-10-08T08:57:35.677Z,2.90
2022-10-08T09:00:08.702Z,3.10
2022-10-08T09:02:41.944Z,2.97
2022-10-08T09:05:16.279Z,3.10
2022-10-08T09:07:49.426Z,3.30
2022-10-08T09:10:22.909Z,3.10
2022-10-08T09:12:55.095Z,2.43
2022-10-08T09:15:27.831Z,2.57
2022-10-08T09:17:56.268Z,3.10
2022-10-08T09:20:26.427Z,2.87
2022-10-08T09:22:55.826Z,3.53
2022-10-08T09:25:26.649Z,3.30
2022-10-08T09:27:58.647Z,2.67
2022-10-08T09:30:35.023Z,2.83
2022-10-08T09:33:17.406Z,2.27
2022-10-08T09:35:48.957Z,3.80
2022-10-08T09:38:23.081Z,2.27
2022-10-08T09:41:03.503Z,2.20
2022-10-08T09:43:34.711Z,2.50
2022-10-08T09:46:11.885Z,2.60
2022-10-08T09:48:41.731Z,2.73
2022-10-08T09:51:16.799Z,3.50
2022-10-08T09:53:50.133Z,3.13
2022-10-08T09:56:27.749Z,2.70
2022-10-08T09:59:00.784Z,2.57
2022-10-08T10:01:31.468Z,2.60
2022-10-08T10:04:03.056Z,2.37
2022-10-08T10:06:34.253Z,3.73
2022-10-08T10:09:08.147Z,2.83
2022-10-08T10:11:41.820Z,2.77
2022-10-08T10:14:22.501Z,2.70
2022-10-08T10:16:57.674Z,2.63
2022-10-08T10:19:32.226Z,3.00
2022-10-08T10:22:06.246Z,3.67
2022-10-08T10:24:52.075Z,3.00
2022-10-08T10:27:31.097Z,2.70
2022-10-08T10:30:16.219Z,2.57
2022-10-08T10:32:51.180Z,2.77
2022-10-08T10:35:26.606Z,2.37
2022-10-08T10:38:03.250Z,2.27
2022-10-08T10:40:37.209Z,3.03
2022-10-08T10:43:34.439Z,2.37
2022-10-08T10:46:19.311Z,2.27
2022-10-08T10:48:47.730Z,3.00
2022-10-08T10:51:40.763Z,1.50
2022-10-08T10:54:31.682Z,2.50
2022-10-08T10:57:06.633Z,1.63
2022-10-08T10:59:45.238Z,2.10
2022-10-08T11:02:25.101Z,2.73
2022-10-08T11:05:03.774Z,2.30
2022-10-08T11:08:03.963Z,1.80
2022-10-08T11:10:47.625Z,2.47
2022-10-08T11:13:41.355Z,2.13
2022-10-08T11:16:28.979Z,2.23
2022-10-08T11:19:00.820Z,3.40
2022-10-08T11:21:44.667Z,2.30
2022-10-08T11:24:37.085Z,2.80
2022-10-08T11:27:13.943Z,2.90
2022-10-08T11:29:48.644Z,2.60
2022-10-08T11:32:19.253Z,3.03
2022-10-08T11:34:54.462Z,2.47
2022-10-08T11:37:29.649Z,2.53
2022-10-08T11:40:08.757Z,2.57
2022-10-08T11:42:48.292Z,3.00
2022-10-08T11:45:37.164Z,2.40
2022-10-08T11:48:34.362Z,2.60
2022-10-08T11:51:34.722Z,2.80
2022-10-08T11:54:17.910Z,2.50
2022-10-08T11:56:49.666Z,2.30
2022-10-08T11:59:32.330Z,2.13
